Terminal Aerodrome Forecast
Issued by NWS

Home | Current Version | Previous Version | Text Only | Print | Product List | Glossary On
Versions: 1 2 3 4 5 6 7 8 9 10 11 12 13 14 15 16 17 18 19 20 21
560
FTUS43 KPAH 091441 AAA
TAFCGI
TAF AMD
KCGI 091441Z 0915/1012 33012KT P6SM SCT020 OVC040
      TEMPO 0915/0918 3SM -SHSN OVC020
     FM100200 31010KT P6SM SCT035=

USA.gov is the U.S. government's official web portal to all federal, state and local government web resources and services.